sensor_id;sensor_type;location;lat;lon;timestamp;temperature;humidity
10046;DHT22;5063;50.878;4.742;2023-05-27T00:02:22;11.00;99.90
10046;DHT22;5063;50.878;4.742;2023-05-27T00:04:47;11.00;99.90
10046;DHT22;5063;50.878;4.742;2023-05-27T00:07:13;11.00;99.90
10046;DHT22;5063;50.878;4.742;2023-05-27T00:09:39;10.90;99.90
10046;DHT22;5063;50.878;4.742;2023-05-27T00:12:05;10.90;99.90
10046;DHT22;5063;50.878;4.742;2023-05-27T00:14:30;10.90;99.90
10046;DHT22;5063;50.878;4.742;2023-05-27T00:16:56;10.90;99.90
10046;DHT22;5063;50.878;4.742;2023-05-27T00:19:23;10.90;99.90
10046;DHT22;5063;50.878;4.742;2023-05-27T00:21:50;10.80;99.90
10046;DHT22;5063;50.878;4.742;2023-05-27T00:24:18;10.80;99.90
10046;DHT22;5063;50.878;4.742;2023-05-27T00:26:44;10.70;99.90
10046;DHT22;5063;50.878;4.742;2023-05-27T00:29:10;10.70;99.90
10046;DHT22;5063;50.878;4.742;2023-05-27T00:31:35;10.70;99.90
10046;DHT22;5063;50.878;4.742;2023-05-27T00:34:01;10.70;99.90
10046;DHT22;5063;50.878;4.742;2023-05-27T00:36:27;10.60;99.90
10046;DHT22;5063;50.878;4.742;2023-05-27T00:38:53;10.60;99.90
10046;DHT22;5063;50.878;4.742;2023-05-27T00:41:19;10.50;99.90
10046;DHT22;5063;50.878;4.742;2023-05-27T00:43:45;10.50;99.90
10046;DHT22;5063;50.878;4.742;2023-05-27T00:46:11;10.50;99.90
10046;DHT22;5063;50.878;4.742;2023-05-27T00:48:37;10.50;99.90
10046;DHT22;5063;50.878;4.742;2023-05-27T00:51:03;10.40;99.90
10046;DHT22;5063;50.878;4.742;2023-05-27T00:53:41;10.40;99.90
10046;DHT22;5063;50.878;4.742;2023-05-27T00:56:09;10.30;99.90
10046;DHT22;5063;50.878;4.742;2023-05-27T00:58:36;10.30;99.90
10046;DHT22;5063;50.878;4.742;2023-05-27T01:01:03;10.20;99.90
10046;DHT22;5063;50.878;4.742;2023-05-27T01:03:30;10.20;99.90
10046;DHT22;5063;50.878;4.742;2023-05-27T01:11:37;10.10;99.90
10046;DHT22;5063;50.878;4.742;2023-05-27T01:14:09;10.10;99.90
10046;DHT22;5063;50.878;4.742;2023-05-27T01:16:38;10.00;99.90
10046;DHT22;5063;50.878;4.742;2023-05-27T01:19:09;9.90;99.90
10046;DHT22;5063;50.878;4.742;2023-05-27T01:21:37;9.90;99.90
10046;DHT22;5063;50.878;4.742;2023-05-27T01:24:05;9.80;99.90
10046;DHT22;5063;50.878;4.742;2023-05-27T01:26:31;9.80;99.90
10046;DHT22;5063;50.878;4.742;2023-05-27T01:28:57;9.80;99.90
10046;DHT22;5063;50.878;4.742;2023-05-27T01:31:31;9.80;99.90
10046;DHT22;5063;50.878;4.742;2023-05-27T01:34:08;9.70;99.90
10046;DHT22;5063;50.878;4.742;2023-05-27T01:36:39;9.70;99.90
10046;DHT22;5063;50.878;4.742;2023-05-27T01:39:09;9.60;99.90
10046;DHT22;5063;50.878;4.742;2023-05-27T01:41:40;9.50;99.90
10046;DHT22;5063;50.878;4.742;2023-05-27T01:44:08;9.50;99.90
10046;DHT22;5063;50.878;4.742;2023-05-27T01:46:36;9.50;99.90
10046;DHT22;5063;50.878;4.742;2023-05-27T01:49:02;9.50;99.90
10046;DHT22;5063;50.878;4.742;2023-05-27T01:51:28;9.40;99.90
10046;DHT22;5063;50.878;4.742;2023-05-27T01:53:53;9.40;99.90
10046;DHT22;5063;50.878;4.742;2023-05-27T01:56:19;9.40;99.90
10046;DHT22;5063;50.878;4.742;2023-05-27T01:58:45;9.40;99.90
10046;DHT22;5063;50.878;4.742;2023-05-27T02:01:10;9.40;99.90
10046;DHT22;5063;50.878;4.742;2023-05-27T02:03:37;9.40;99.90
10046;DHT22;5063;50.878;4.742;2023-05-27T02:06:03;9.60;99.90
10046;DHT22;5063;50.878;4.742;2023-05-27T02:08:29;9.40;99.90
10046;DHT22;5063;50.878;4.742;2023-05-27T02:10:55;9.20;99.90
10046;DHT22;5063;50.878;4.742;2023-05-27T02:13:21;9.30;99.90
10046;DHT22;5063;50.878;4.742;2023-05-27T02:15:46;9.20;99.90
10046;DHT22;5063;50.878;4.742;2023-05-27T02:18:12;9.20;99.90
10046;DHT22;5063;50.878;4.742;2023-05-27T02:20:38;9.20;99.90
10046;DHT22;5063;50.878;4.742;2023-05-27T02:23:06;9.20;99.90
10046;DHT22;5063;50.878;4.742;2023-05-27T02:25:35;9.10;99.90
10046;DHT22;5063;50.878;4.742;2023-05-27T02:28:01;9.10;99.90
10046;DHT22;5063;50.878;4.742;2023-05-27T02:30:29;9.10;99.90
10046;DHT22;5063;50.878;4.742;2023-05-27T02:32:57;9.10;99.90
10046;DHT22;5063;50.878;4.742;2023-05-27T02:35:23;9.00;99.90
10046;DHT22;5063;50.878;4.742;2023-05-27T02:37:49;9.00;99.90
10046;DHT22;5063;50.878;4.742;2023-05-27T02:40:27;8.90;99.90
10046;DHT22;5063;50.878;4.742;2023-05-27T02:42:53;8.90;99.90
10046;DHT22;5063;50.878;4.742;2023-05-27T02:45:19;8.90;99.90
10046;DHT22;5063;50.878;4.742;2023-05-27T02:47:45;8.90;99.90
10046;DHT22;5063;50.878;4.742;2023-05-27T02:50:10;8.80;99.90
10046;DHT22;5063;50.878;4.742;2023-05-27T02:52:36;8.80;99.90
10046;DHT22;5063;50.878;4.742;2023-05-27T02:55:02;8.70;99.90
10046;DHT22;5063;50.878;4.742;2023-05-27T02:57:28;8.70;99.90
10046;DHT22;5063;50.878;4.742;2023-05-27T02:59:54;8.70;99.90
10046;DHT22;5063;50.878;4.742;2023-05-27T03:02:19;8.70;99.90
10046;DHT22;5063;50.878;4.742;2023-05-27T03:04:45;8.60;99.90
10046;DHT22;5063;50.878;4.742;2023-05-27T03:07:11;8.60;99.90
10046;DHT22;5063;50.878;4.742;2023-05-27T03:09:36;8.60;99.90
10046;DHT22;5063;50.878;4.742;2023-05-27T03:12:02;8.60;99.90
10046;DHT22;5063;50.878;4.742;2023-05-27T03:14:28;8.60;99.90
10046;DHT22;5063;50.878;4.742;2023-05-27T03:16:54;8.70;99.90
10046;DHT22;5063;50.878;4.742;2023-05-27T03:19:20;8.60;99.90
10046;DHT22;5063;50.878;4.742;2023-05-27T03:21:46;8.50;99.90
10046;DHT22;5063;50.878;4.742;2023-05-27T03:24:12;8.40;99.90
10046;DHT22;5063;50.878;4.742;2023-05-27T03:26:38;8.40;99.90
10046;DHT22;5063;50.878;4.742;2023-05-27T03:29:04;8.40;99.90
10046;DHT22;5063;50.878;4.742;2023-05-27T03:31:30;8.40;99.90
10046;DHT22;5063;50.878;4.742;2023-05-27T03:33:55;8.40;99.90
10046;DHT22;5063;50.878;4.742;2023-05-27T03:36:21;8.40;99.90
10046;DHT22;5063;50.878;4.742;2023-05-27T03:38:47;8.40;99.90
10046;DHT22;5063;50.878;4.742;2023-05-27T03:41:13;8.40;99.90
10046;DHT22;5063;50.878;4.742;2023-05-27T03:43:39;8.40;99.90
10046;DHT22;5063;50.878;4.742;2023-05-27T03:46:04;8.40;99.90
10046;DHT22;5063;50.878;4.742;2023-05-27T03:48:30;8.40;99.90
10046;DHT22;5063;50.878;4.742;2023-05-27T03:50:56;8.40;99.90
10046;DHT22;5063;50.878;4.742;2023-05-27T03:53:21;8.40;99.90
10046;DHT22;5063;50.878;4.742;2023-05-27T03:55:47;8.30;99.90
10046;DHT22;5063;50.878;4.742;2023-05-27T03:58:13;8.30;99.90
10046;DHT22;5063;50.878;4.742;2023-05-27T04:00:40;8.30;99.90
10046;DHT22;5063;50.878;4.742;2023-05-27T04:03:07;8.30;99.90
10046;DHT22;5063;50.878;4.742;2023-05-27T04:05:33;8.30;99.90
10046;DHT22;5063;50.878;4.742;2023-05-27T04:08:00;8.40;99.90
10046;DHT22;5063;50.878;4.742;2023-05-27T04:10:26;8.40;99.90
10046;DHT22;5063;50.878;4.742;2023-05-27T04:12:52;8.40;99.90
10046;DHT22;5063;50.878;4.742;2023-05-27T04:15:17;8.40;99.90
10046;DHT22;5063;50.878;4.742;2023-05-27T04:17:43;8.70;99.90
10046;DHT22;5063;50.878;4.742;2023-05-27T04:20:10;8.50;99.90
10046;DHT22;5063;50.878;4.742;2023-05-27T04:22:42;8.60;99.90
10046;DHT22;5063;50.878;4.742;2023-05-27T04:25:09;8.60;99.90
10046;DHT22;5063;50.878;4.742;2023-05-27T04:27:35;8.70;99.90
10046;DHT22;5063;50.878;4.742;2023-05-27T04:30:06;8.70;99.90
10046;DHT22;5063;50.878;4.742;2023-05-27T04:32:32;8.80;99.90
10046;DHT22;5063;50.878;4.742;2023-05-27T04:35:08;8.90;99.90
10046;DHT22;5063;50.878;4.742;2023-05-27T04:37:34;8.90;99.90
10046;DHT22;5063;50.878;4.742;2023-05-27T04:40:04;9.00;99.90
10046;DHT22;5063;50.878;4.742;2023-05-27T04:42:32;9.10;99.90
10046;DHT22;5063;50.878;4.742;2023-05-27T04:44:58;9.20;99.90
10046;DHT22;5063;50.878;4.742;2023-05-27T04:47:25;9.30;99.90
10046;DHT22;5063;50.878;4.742;2023-05-27T04:49:51;9.30;99.90
10046;DHT22;5063;50.878;4.742;2023-05-27T04:52:17;9.40;99.90
10046;DHT22;5063;50.878;4.742;2023-05-27T04:54:46;9.50;99.90
10046;DHT22;5063;50.878;4.742;2023-05-27T04:57:13;10.00;99.90
10046;DHT22;5063;50.878;4.742;2023-05-27T04:59:44;11.00;99.90
10046;DHT22;5063;50.878;4.742;2023-05-27T05:02:33;12.10;99.90
10046;DHT22;5063;50.878;4.742;2023-05-27T05:05:04;13.00;99.90
10046;DHT22;5063;50.878;4.742;2023-05-27T05:07:30;13.60;99.90
10046;DHT22;5063;50.878;4.742;2023-05-27T05:09:56;14.20;99.90
10046;DHT22;5063;50.878;4.742;2023-05-27T05:12:23;14.70;99.90
10046;DHT22;5063;50.878;4.742;2023-05-27T05:14:50;15.20;99.90
10046;DHT22;5063;50.878;4.742;2023-05-27T05:17:16;15.40;99.90
10046;DHT22;5063;50.878;4.742;2023-05-27T05:19:42;16.00;99.90
10046;DHT22;5063;50.878;4.742;2023-05-27T05:22:08;16.30;99.90
10046;DHT22;5063;50.878;4.742;2023-05-27T05:24:34;16.50;99.90
10046;DHT22;5063;50.878;4.742;2023-05-27T05:26:59;16.70;99.90
10046;DHT22;5063;50.878;4.742;2023-05-27T05:29:25;16.90;99.90
10046;DHT22;5063;50.878;4.742;2023-05-27T05:31:51;17.00;99.90
10046;DHT22;5063;50.878;4.742;2023-05-27T05:34:17;17.00;99.90
10046;DHT22;5063;50.878;4.742;2023-05-27T05:36:43;17.10;99.90
10046;DHT22;5063;50.878;4.742;2023-05-27T05:39:09;17.30;99.90
10046;DHT22;5063;50.878;4.742;2023-05-27T05:41:34;17.40;99.90
10046;DHT22;5063;50.878;4.742;2023-05-27T05:44:00;17.60;99.90
10046;DHT22;5063;50.878;4.742;2023-05-27T05:46:26;17.80;99.90
10046;DHT22;5063;50.878;4.742;2023-05-27T05:48:52;18.10;99.90
10046;DHT22;5063;50.878;4.742;2023-05-27T05:51:19;18.20;99.90
10046;DHT22;5063;50.878;4.742;2023-05-27T05:53:45;18.70;99.90
10046;DHT22;5063;50.878;4.742;2023-05-27T05:56:11;19.20;99.90
10046;DHT22;5063;50.878;4.742;2023-05-27T05:58:36;19.60;99.90
10046;DHT22;5063;50.878;4.742;2023-05-27T06:01:02;20.10;99.90
10046;DHT22;5063;50.878;4.742;2023-05-27T06:03:28;20.60;99.90
10046;DHT22;5063;50.878;4.742;2023-05-27T06:05:54;20.70;99.90
10046;DHT22;5063;50.878;4.742;2023-05-27T06:08:20;20.60;99.90
10046;DHT22;5063;50.878;4.742;2023-05-27T06:10:46;21.00;99.90
10046;DHT22;5063;50.878;4.742;2023-05-27T06:13:11;21.00;99.90
10046;DHT22;5063;50.878;4.742;2023-05-27T06:15:38;21.50;99.90
10046;DHT22;5063;50.878;4.742;2023-05-27T06:18:04;21.70;99.90
10046;DHT22;5063;50.878;4.742;2023-05-27T06:20:30;21.80;99.90
10046;DHT22;5063;50.878;4.742;2023-05-27T06:22:56;21.80;99.90
10046;DHT22;5063;50.878;4.742;2023-05-27T06:25:21;22.10;99.90
10046;DHT22;5063;50.878;4.742;2023-05-27T06:27:47;22.60;99.90
10046;DHT22;5063;50.878;4.742;2023-05-27T06:30:14;22.80;99.90
10046;DHT22;5063;50.878;4.742;2023-05-27T06:32:40;23.30;99.90
10046;DHT22;5063;50.878;4.742;2023-05-27T06:35:06;23.50;99.90
10046;DHT22;5063;50.878;4.742;2023-05-27T06:37:31;23.50;99.90
10046;DHT22;5063;50.878;4.742;2023-05-27T06:39:57;23.70;99.60
10046;DHT22;5063;50.878;4.742;2023-05-27T06:42:23;23.70;99.80
10046;DHT22;5063;50.878;4.742;2023-05-27T06:44:49;23.50;98.70
10046;DHT22;5063;50.878;4.742;2023-05-27T06:47:15;23.30;98.60
10046;DHT22;5063;50.878;4.742;2023-05-27T06:49:40;23.20;98.90
10046;DHT22;5063;50.878;4.742;2023-05-27T06:52:06;23.30;98.80
10046;DHT22;5063;50.878;4.742;2023-05-27T06:54:32;23.70;98.10
10046;DHT22;5063;50.878;4.742;2023-05-27T06:56:58;24.20;98.20
10046;DHT22;5063;50.878;4.742;2023-05-27T06:59:24;24.20;98.20
10046;DHT22;5063;50.878;4.742;2023-05-27T07:01:50;24.40;96.80
10046;DHT22;5063;50.878;4.742;2023-05-27T07:04:16;24.40;96.40
10046;DHT22;5063;50.878;4.742;2023-05-27T07:06:43;24.70;96.20
10046;DHT22;5063;50.878;4.742;2023-05-27T07:09:08;25.10;96.20
10046;DHT22;5063;50.878;4.742;2023-05-27T07:11:35;25.30;94.80
10046;DHT22;5063;50.878;4.742;2023-05-27T07:14:01;24.70;94.40
10046;DHT22;5063;50.878;4.742;2023-05-27T07:16:26;24.40;94.90
10046;DHT22;5063;50.878;4.742;2023-05-27T07:18:52;24.00;95.00
10046;DHT22;5063;50.878;4.742;2023-05-27T07:21:18;24.10;95.50
10046;DHT22;5063;50.878;4.742;2023-05-27T07:23:44;24.00;95.10
10046;DHT22;5063;50.878;4.742;2023-05-27T07:26:09;24.00;95.50
10046;DHT22;5063;50.878;4.742;2023-05-27T07:28:35;24.90;95.20
10046;DHT22;5063;50.878;4.742;2023-05-27T07:31:03;25.40;93.90
10046;DHT22;5063;50.878;4.742;2023-05-27T07:33:29;25.70;93.40
10046;DHT22;5063;50.878;4.742;2023-05-27T07:35:55;25.20;93.30
10046;DHT22;5063;50.878;4.742;2023-05-27T07:38:21;25.10;95.20
10046;DHT22;5063;50.878;4.742;2023-05-27T07:40:47;26.00;93.40
10046;DHT22;5063;50.878;4.742;2023-05-27T07:43:12;26.10;92.30
10046;DHT22;5063;50.878;4.742;2023-05-27T07:45:38;26.10;91.60
10046;DHT22;5063;50.878;4.742;2023-05-27T07:48:04;25.30;92.20
10046;DHT22;5063;50.878;4.742;2023-05-27T07:50:30;25.50;92.40
10046;DHT22;5063;50.878;4.742;2023-05-27T07:52:56;25.90;92.70
10046;DHT22;5063;50.878;4.742;2023-05-27T07:55:22;26.00;91.60
10046;DHT22;5063;50.878;4.742;2023-05-27T07:57:47;26.30;91.50
10046;DHT22;5063;50.878;4.742;2023-05-27T08:00:13;26.20;91.50
10046;DHT22;5063;50.878;4.742;2023-05-27T08:02:39;26.50;90.90
10046;DHT22;5063;50.878;4.742;2023-05-27T08:05:07;26.50;90.30
10046;DHT22;5063;50.878;4.742;2023-05-27T08:07:33;25.90;90.60
10046;DHT22;5063;50.878;4.742;2023-05-27T08:09:59;26.00;90.80
10046;DHT22;5063;50.878;4.742;2023-05-27T08:12:25;25.80;91.50
10046;DHT22;5063;50.878;4.742;2023-05-27T08:14:51;25.90;91.00
10046;DHT22;5063;50.878;4.742;2023-05-27T08:17:17;26.20;90.30
10046;DHT22;5063;50.878;4.742;2023-05-27T08:19:43;26.20;90.00
10046;DHT22;5063;50.878;4.742;2023-05-27T08:22:08;26.00;89.70
10046;DHT22;5063;50.878;4.742;2023-05-27T08:24:35;25.40;91.00
10046;DHT22;5063;50.878;4.742;2023-05-27T08:27:01;25.90;90.70
10046;DHT22;5063;50.878;4.742;2023-05-27T08:29:28;26.60;90.00
10046;DHT22;5063;50.878;4.742;2023-05-27T08:31:56;26.50;87.70
10046;DHT22;5063;50.878;4.742;2023-05-27T08:34:23;26.20;91.00
10046;DHT22;5063;50.878;4.742;2023-05-27T08:36:48;26.00;89.30
10046;DHT22;5063;50.878;4.742;2023-05-27T08:39:14;26.40;89.30
10046;DHT22;5063;50.878;4.742;2023-05-27T08:41:41;26.10;87.20
10046;DHT22;5063;50.878;4.742;2023-05-27T08:44:08;26.30;89.10
10046;DHT22;5063;50.878;4.742;2023-05-27T08:46:34;27.10;89.20
10046;DHT22;5063;50.878;4.742;2023-05-27T08:49:01;26.90;87.00
10046;DHT22;5063;50.878;4.742;2023-05-27T08:51:27;26.80;89.40
10046;DHT22;5063;50.878;4.742;2023-05-27T08:53:53;27.30;87.80
10046;DHT22;5063;50.878;4.742;2023-05-27T08:56:20;27.50;86.40
10046;DHT22;5063;50.878;4.742;2023-05-27T08:58:47;27.00;85.50
10046;DHT22;5063;50.878;4.742;2023-05-27T09:01:16;26.60;86.40
10046;DHT22;5063;50.878;4.742;2023-05-27T09:03:42;27.30;87.30
10046;DHT22;5063;50.878;4.742;2023-05-27T09:06:09;26.90;85.30
10046;DHT22;5063;50.878;4.742;2023-05-27T09:08:35;26.80;86.90
10046;DHT22;5063;50.878;4.742;2023-05-27T09:11:01;27.20;87.30
10046;DHT22;5063;50.878;4.742;2023-05-27T09:13:31;27.00;85.00
10046;DHT22;5063;50.878;4.742;2023-05-27T09:16:01;26.00;85.90
10046;DHT22;5063;50.878;4.742;2023-05-27T09:18:28;24.80;87.50
10046;DHT22;5063;50.878;4.742;2023-05-27T09:20:57;23.50;90.70
10046;DHT22;5063;50.878;4.742;2023-05-27T09:23:23;22.50;92.10
10046;DHT22;5063;50.878;4.742;2023-05-27T09:25:50;22.30;93.40
10046;DHT22;5063;50.878;4.742;2023-05-27T09:28:24;22.40;93.40
10046;DHT22;5063;50.878;4.742;2023-05-27T09:31:00;23.00;94.40
10046;DHT22;5063;50.878;4.742;2023-05-27T09:33:31;23.30;93.30
10046;DHT22;5063;50.878;4.742;2023-05-27T09:36:02;23.30;92.80
10046;DHT22;5063;50.878;4.742;2023-05-27T09:38:33;23.10;92.20
10046;DHT22;5063;50.878;4.742;2023-05-27T09:41:00;23.00;93.10
10046;DHT22;5063;50.878;4.742;2023-05-27T09:43:27;22.60;93.30
10046;DHT22;5063;50.878;4.742;2023-05-27T09:46:01;21.90;94.10
10046;DHT22;5063;50.878;4.742;2023-05-27T09:48:29;21.30;95.30
10046;DHT22;5063;50.878;4.742;2023-05-27T09:50:57;21.20;97.80
10046;DHT22;5063;50.878;4.742;2023-05-27T09:53:24;21.20;98.90
10046;DHT22;5063;50.878;4.742;2023-05-27T09:55:53;21.20;98.50
10046;DHT22;5063;50.878;4.742;2023-05-27T09:58:20;21.30;99.50
10046;DHT22;5063;50.878;4.742;2023-05-27T10:00:47;21.40;99.80
10046;DHT22;5063;50.878;4.742;2023-05-27T10:03:14;21.20;99.60
10046;DHT22;5063;50.878;4.742;2023-05-27T10:05:43;21.30;99.90
10046;DHT22;5063;50.878;4.742;2023-05-27T10:08:11;21.40;99.40
10046;DHT22;5063;50.878;4.742;2023-05-27T10:10:37;21.00;99.90
10046;DHT22;5063;50.878;4.742;2023-05-27T10:13:03;20.80;99.90
10046;DHT22;5063;50.878;4.742;2023-05-27T10:15:31;20.80;99.90
10046;DHT22;5063;50.878;4.742;2023-05-27T10:18:00;21.00;99.90
10046;DHT22;5063;50.878;4.742;2023-05-27T10:20:41;20.90;99.90
10046;DHT22;5063;50.878;4.742;2023-05-27T10:23:15;20.90;99.90
10046;DHT22;5063;50.878;4.742;2023-05-27T10:25:47;20.70;99.90
10046;DHT22;5063;50.878;4.742;2023-05-27T10:28:31;20.80;99.90
10046;DHT22;5063;50.878;4.742;2023-05-27T10:33:31;21.30;99.70
10046;DHT22;5063;50.878;4.742;2023-05-27T10:36:11;21.30;99.90
10046;DHT22;5063;50.878;4.742;2023-05-27T10:38:38;21.10;99.40
10046;DHT22;5063;50.878;4.742;2023-05-27T10:41:06;21.10;99.60
10046;DHT22;5063;50.878;4.742;2023-05-27T10:43:33;21.20;99.70
10046;DHT22;5063;50.878;4.742;2023-05-27T10:48:29;21.30;98.00
10046;DHT22;5063;50.878;4.742;2023-05-27T10:50:57;21.30;99.80
10046;DHT22;5063;50.878;4.742;2023-05-27T10:53:26;21.20;99.70
10046;DHT22;5063;50.878;4.742;2023-05-27T10:55:52;21.40;99.80
10046;DHT22;5063;50.878;4.742;2023-05-27T10:58:20;21.30;99.80
10046;DHT22;5063;50.878;4.742;2023-05-27T11:00:53;21.30;97.40
10046;DHT22;5063;50.878;4.742;2023-05-27T11:03:23;21.50;99.90
10046;DHT22;5063;50.878;4.742;2023-05-27T11:06:03;21.50;99.80
10046;DHT22;5063;50.878;4.742;2023-05-27T11:08:33;21.50;99.80
10046;DHT22;5063;50.878;4.742;2023-05-27T11:11:05;21.50;99.00
10046;DHT22;5063;50.878;4.742;2023-05-27T11:13:39;21.40;97.70
10046;DHT22;5063;50.878;4.742;2023-05-27T11:16:06;21.50;98.80
10046;DHT22;5063;50.878;4.742;2023-05-27T11:18:44;21.70;97.70
10046;DHT22;5063;50.878;4.742;2023-05-27T11:21:12;21.60;96.90
10046;DHT22;5063;50.878;4.742;2023-05-27T11:23:46;21.70;97.40
10046;DHT22;5063;50.878;4.742;2023-05-27T11:26:13;21.70;96.80
10046;DHT22;5063;50.878;4.742;2023-05-27T11:28:59;21.60;96.70
10046;DHT22;5063;50.878;4.742;2023-05-27T11:31:30;21.50;97.50
10046;DHT22;5063;50.878;4.742;2023-05-27T11:34:01;21.60;97.60
10046;DHT22;5063;50.878;4.742;2023-05-27T11:36:28;21.70;98.00
10046;DHT22;5063;50.878;4.742;2023-05-27T11:39:00;21.70;98.10
10046;DHT22;5063;50.878;4.742;2023-05-27T11:41:28;21.90;97.10
10046;DHT22;5063;50.878;4.742;2023-05-27T11:44:05;21.70;95.60
10046;DHT22;5063;50.878;4.742;2023-05-27T11:46:42;21.80;95.50
10046;DHT22;5063;50.878;4.742;2023-05-27T11:49:11;21.80;96.60
10046;DHT22;5063;50.878;4.742;2023-05-27T11:51:41;21.80;95.80
10046;DHT22;5063;50.878;4.742;2023-05-27T11:54:24;21.90;95.90
10046;DHT22;5063;50.878;4.742;2023-05-27T11:56:51;22.10;96.80
10046;DHT22;5063;50.878;4.742;2023-05-27T11:59:18;22.20;96.20
10046;DHT22;5063;50.878;4.742;2023-05-27T12:01:44;22.20;96.50
10046;DHT22;5063;50.878;4.742;2023-05-27T12:04:10;22.20;95.50
10046;DHT22;5063;50.878;4.742;2023-05-27T12:06:37;22.10;94.50
10046;DHT22;5063;50.878;4.742;2023-05-27T12:09:07;22.30;95.70
10046;DHT22;5063;50.878;4.742;2023-05-27T12:11:34;22.50;96.00
10046;DHT22;5063;50.878;4.742;2023-05-27T12:14:00;22.50;96.70
10046;DHT22;5063;50.878;4.742;2023-05-27T12:16:26;22.40;96.00
10046;DHT22;5063;50.878;4.742;2023-05-27T12:18:52;22.40;96.40
10046;DHT22;5063;50.878;4.742;2023-05-27T12:21:18;22.40;96.00
10046;DHT22;5063;50.878;4.742;2023-05-27T12:23:45;22.60;97.80
10046;DHT22;5063;50.878;4.742;2023-05-27T12:26:13;22.80;96.10
10046;DHT22;5063;50.878;4.742;2023-05-27T12:28:39;22.80;94.10
10046;DHT22;5063;50.878;4.742;2023-05-27T12:31:05;22.80;93.70
10046;DHT22;5063;50.878;4.742;2023-05-27T12:33:31;22.80;95.00
10046;DHT22;5063;50.878;4.742;2023-05-27T12:35:58;22.80;94.00
10046;DHT22;5063;50.878;4.742;2023-05-27T12:38:25;22.80;93.90
10046;DHT22;5063;50.878;4.742;2023-05-27T12:40:51;22.80;95.10
10046;DHT22;5063;50.878;4.742;2023-05-27T12:43:19;22.90;94.60
10046;DHT22;5063;50.878;4.742;2023-05-27T12:45:45;22.90;93.70
10046;DHT22;5063;50.878;4.742;2023-05-27T12:48:14;22.70;94.10
10046;DHT22;5063;50.878;4.742;2023-05-27T12:50:40;22.80;94.00
10046;DHT22;5063;50.878;4.742;2023-05-27T12:53:08;22.90;92.20
10046;DHT22;5063;50.878;4.742;2023-05-27T12:55:34;22.90;93.50
10046;DHT22;5063;50.878;4.742;2023-05-27T12:58:01;23.00;94.80
10046;DHT22;5063;50.878;4.742;2023-05-27T13:00:27;23.10;94.80
10046;DHT22;5063;50.878;4.742;2023-05-27T13:02:53;23.10;93.90
10046;DHT22;5063;50.878;4.742;2023-05-27T13:05:19;23.10;94.80
10046;DHT22;5063;50.878;4.742;2023-05-27T13:07:56;23.10;94.20
10046;DHT22;5063;50.878;4.742;2023-05-27T13:10:23;23.10;95.00
10046;DHT22;5063;50.878;4.742;2023-05-27T13:12:49;23.20;93.90
10046;DHT22;5063;50.878;4.742;2023-05-27T13:15:15;23.40;93.70
10046;DHT22;5063;50.878;4.742;2023-05-27T13:17:44;23.40;93.50
10046;DHT22;5063;50.878;4.742;2023-05-27T13:20:11;23.50;93.10
10046;DHT22;5063;50.878;4.742;2023-05-27T13:22:37;23.60;90.90
10046;DHT22;5063;50.878;4.742;2023-05-27T13:25:04;23.60;89.60
10046;DHT22;5063;50.878;4.742;2023-05-27T13:27:30;23.60;90.50
10046;DHT22;5063;50.878;4.742;2023-05-27T13:29:56;23.60;90.00
10046;DHT22;5063;50.878;4.742;2023-05-27T13:32:22;23.80;89.70
10046;DHT22;5063;50.878;4.742;2023-05-27T13:34:48;23.90;87.40
10046;DHT22;5063;50.878;4.742;2023-05-27T13:37:13;23.90;87.80
10046;DHT22;5063;50.878;4.742;2023-05-27T13:39:39;24.10;91.20
10046;DHT22;5063;50.878;4.742;2023-05-27T13:42:09;24.30;90.70
10046;DHT22;5063;50.878;4.742;2023-05-27T13:44:34;24.60;89.60
10046;DHT22;5063;50.878;4.742;2023-05-27T13:47:00;24.60;90.20
10046;DHT22;5063;50.878;4.742;2023-05-27T13:49:27;24.60;91.60
10046;DHT22;5063;50.878;4.742;2023-05-27T13:51:53;24.40;90.70
10046;DHT22;5063;50.878;4.742;2023-05-27T13:54:18;24.40;87.30
10046;DHT22;5063;50.878;4.742;2023-05-27T13:56:45;24.30;83.40
10046;DHT22;5063;50.878;4.742;2023-05-27T13:59:11;24.20;85.60
10046;DHT22;5063;50.878;4.742;2023-05-27T14:01:39;24.00;84.90
10046;DHT22;5063;50.878;4.742;2023-05-27T14:04:06;24.20;87.00
10046;DHT22;5063;50.878;4.742;2023-05-27T14:06:32;24.30;85.90
10046;DHT22;5063;50.878;4.742;2023-05-27T14:08:58;24.30;84.40
10046;DHT22;5063;50.878;4.742;2023-05-27T14:11:24;24.30;80.60
10046;DHT22;5063;50.878;4.742;2023-05-27T14:13:50;24.30;83.40
10046;DHT22;5063;50.878;4.742;2023-05-27T14:16:16;24.50;84.20
10046;DHT22;5063;50.878;4.742;2023-05-27T14:18:43;24.50;82.00
10046;DHT22;5063;50.878;4.742;2023-05-27T14:21:09;24.50;83.30
10046;DHT22;5063;50.878;4.742;2023-05-27T14:23:35;24.60;84.30
10046;DHT22;5063;50.878;4.742;2023-05-27T14:26:01;24.90;82.20
10046;DHT22;5063;50.878;4.742;2023-05-27T14:28:26;24.90;85.20
10046;DHT22;5063;50.878;4.742;2023-05-27T14:30:52;25.00;80.00
10046;DHT22;5063;50.878;4.742;2023-05-27T14:33:18;24.90;79.60
10046;DHT22;5063;50.878;4.742;2023-05-27T14:35:44;25.10;80.00
10046;DHT22;5063;50.878;4.742;2023-05-27T14:38:11;25.40;79.70
10046;DHT22;5063;50.878;4.742;2023-05-27T14:40:38;25.50;78.40
10046;DHT22;5063;50.878;4.742;2023-05-27T14:43:04;25.70;78.90
10046;DHT22;5063;50.878;4.742;2023-05-27T14:45:31;25.80;79.00
10046;DHT22;5063;50.878;4.742;2023-05-27T14:47:57;26.00;78.70
10046;DHT22;5063;50.878;4.742;2023-05-27T14:50:23;25.70;78.90
10046;DHT22;5063;50.878;4.742;2023-05-27T14:52:50;25.60;82.40
10046;DHT22;5063;50.878;4.742;2023-05-27T14:55:17;26.00;83.20
10046;DHT22;5063;50.878;4.742;2023-05-27T14:57:43;26.00;82.80
10046;DHT22;5063;50.878;4.742;2023-05-27T15:00:09;25.60;79.80
10046;DHT22;5063;50.878;4.742;2023-05-27T15:02:35;25.90;80.90
10046;DHT22;5063;50.878;4.742;2023-05-27T15:05:05;26.00;80.90
10046;DHT22;5063;50.878;4.742;2023-05-27T15:07:36;25.90;79.30
10046;DHT22;5063;50.878;4.742;2023-05-27T15:10:03;26.00;79.30
10046;DHT22;5063;50.878;4.742;2023-05-27T15:12:40;26.30;79.20
10046;DHT22;5063;50.878;4.742;2023-05-27T15:15:08;26.40;77.70
10046;DHT22;5063;50.878;4.742;2023-05-27T15:17:35;26.30;75.80
10046;DHT22;5063;50.878;4.742;2023-05-27T15:20:04;26.40;77.60
10046;DHT22;5063;50.878;4.742;2023-05-27T15:22:30;26.50;79.40
10046;DHT22;5063;50.878;4.742;2023-05-27T15:24:57;26.90;77.90
10046;DHT22;5063;50.878;4.742;2023-05-27T15:27:23;27.00;72.70
10046;DHT22;5063;50.878;4.742;2023-05-27T15:29:49;26.90;71.00
10046;DHT22;5063;50.878;4.742;2023-05-27T15:32:15;26.60;72.10
10046;DHT22;5063;50.878;4.742;2023-05-27T15:34:41;26.40;73.10
10046;DHT22;5063;50.878;4.742;2023-05-27T15:37:07;26.30;74.00
10046;DHT22;5063;50.878;4.742;2023-05-27T15:39:32;26.30;75.50
10046;DHT22;5063;50.878;4.742;2023-05-27T15:41:58;26.50;78.80
10046;DHT22;5063;50.878;4.742;2023-05-27T15:44:24;26.70;77.00
10046;DHT22;5063;50.878;4.742;2023-05-27T15:46:50;26.60;74.30
10046;DHT22;5063;50.878;4.742;2023-05-27T15:49:16;26.70;75.00
10046;DHT22;5063;50.878;4.742;2023-05-27T15:51:42;26.70;77.50
10046;DHT22;5063;50.878;4.742;2023-05-27T15:54:09;26.70;76.10
10046;DHT22;5063;50.878;4.742;2023-05-27T15:56:35;27.10;75.20
10046;DHT22;5063;50.878;4.742;2023-05-27T15:59:01;27.30;72.80
10046;DHT22;5063;50.878;4.742;2023-05-27T16:01:27;27.30;72.10